sensor_id;sensor_type;location;lat;lon;timestamp;P1;durP1;ratioP1;P2;durP2;ratioP2
68475;SDS011;55464;48.266;14.188;2023-09-30T00:00:58;10.75;;;7.00;;
68475;SDS011;55464;48.266;14.188;2023-09-30T00:03:24;12.27;;;7.30;;
68475;SDS011;55464;48.266;14.188;2023-09-30T00:05:50;11.88;;;6.88;;
68475;SDS011;55464;48.266;14.188;2023-09-30T00:08:15;14.30;;;8.13;;
68475;SDS011;55464;48.266;14.188;2023-09-30T00:10:41;14.65;;;9.10;;
68475;SDS011;55464;48.266;14.188;2023-09-30T00:13:06;15.90;;;9.07;;
68475;SDS011;55464;48.266;14.188;2023-09-30T00:15:35;12.38;;;8.75;;
68475;SDS011;55464;48.266;14.188;2023-09-30T00:18:01;12.07;;;8.00;;
68475;SDS011;55464;48.266;14.188;2023-09-30T00:20:29;10.13;;;8.23;;
68475;SDS011;55464;48.266;14.188;2023-09-30T00:22:55;10.07;;;7.22;;
68475;SDS011;55464;48.266;14.188;2023-09-30T00:25:20;11.52;;;6.72;;
68475;SDS011;55464;48.266;14.188;2023-09-30T00:27:46;10.95;;;6.55;;
68475;SDS011;55464;48.266;14.188;2023-09-30T00:30:12;13.27;;;6.50;;
68475;SDS011;55464;48.266;14.188;2023-09-30T00:32:38;8.43;;;6.85;;
68475;SDS011;55464;48.266;14.188;2023-09-30T00:35:04;10.77;;;6.88;;
68475;SDS011;55464;48.266;14.188;2023-09-30T00:37:36;10.77;;;6.50;;
68475;SDS011;55464;48.266;14.188;2023-09-30T00:40:06;9.55;;;5.93;;
68475;SDS011;55464;48.266;14.188;2023-09-30T00:42:36;9.63;;;6.20;;
68475;SDS011;55464;48.266;14.188;2023-09-30T00:45:06;9.05;;;6.20;;
68475;SDS011;55464;48.266;14.188;2023-09-30T00:47:34;9.40;;;6.65;;
68475;SDS011;55464;48.266;14.188;2023-09-30T00:50:00;11.43;;;6.82;;
68475;SDS011;55464;48.266;14.188;2023-09-30T00:52:28;11.80;;;6.88;;
68475;SDS011;55464;48.266;14.188;2023-09-30T00:54:56;7.97;;;6.32;;
68475;SDS011;55464;48.266;14.188;2023-09-30T00:57:21;11.77;;;6.07;;
68475;SDS011;55464;48.266;14.188;2023-09-30T00:59:47;11.05;;;6.78;;
68475;SDS011;55464;48.266;14.188;2023-09-30T01:02:13;8.55;;;6.28;;
68475;SDS011;55464;48.266;14.188;2023-09-30T01:04:39;8.73;;;5.88;;
68475;SDS011;55464;48.266;14.188;2023-09-30T01:07:05;9.93;;;7.10;;
68475;SDS011;55464;48.266;14.188;2023-09-30T01:09:31;10.00;;;5.93;;
68475;SDS011;55464;48.266;14.188;2023-09-30T01:11:58;9.27;;;5.80;;
68475;SDS011;55464;48.266;14.188;2023-09-30T01:14:32;12.32;;;6.82;;
68475;SDS011;55464;48.266;14.188;2023-09-30T01:17:07;8.48;;;6.28;;
68475;SDS011;55464;48.266;14.188;2023-09-30T01:19:39;11.70;;;6.45;;
68475;SDS011;55464;48.266;14.188;2023-09-30T01:22:05;8.13;;;5.90;;
68475;SDS011;55464;48.266;14.188;2023-09-30T01:24:38;9.10;;;6.28;;
68475;SDS011;55464;48.266;14.188;2023-09-30T01:27:05;11.52;;;6.00;;
68475;SDS011;55464;48.266;14.188;2023-09-30T01:29:30;11.13;;;6.30;;
68475;SDS011;55464;48.266;14.188;2023-09-30T01:31:57;9.45;;;6.13;;
68475;SDS011;55464;48.266;14.188;2023-09-30T01:34:22;11.32;;;6.47;;
68475;SDS011;55464;48.266;14.188;2023-09-30T01:36:48;10.75;;;6.22;;
68475;SDS011;55464;48.266;14.188;2023-09-30T01:39:13;11.70;;;6.90;;
68475;SDS011;55464;48.266;14.188;2023-09-30T01:41:39;12.88;;;7.13;;
68475;SDS011;55464;48.266;14.188;2023-09-30T01:44:06;12.98;;;6.78;;
68475;SDS011;55464;48.266;14.188;2023-09-30T01:46:31;11.25;;;6.47;;
68475;SDS011;55464;48.266;14.188;2023-09-30T01:48:57;13.75;;;6.57;;
68475;SDS011;55464;48.266;14.188;2023-09-30T01:51:22;13.70;;;6.53;;
68475;SDS011;55464;48.266;14.188;2023-09-30T01:53:48;11.35;;;6.97;;
68475;SDS011;55464;48.266;14.188;2023-09-30T01:56:14;14.10;;;6.63;;
68475;SDS011;55464;48.266;14.188;2023-09-30T01:58:39;13.43;;;7.20;;
68475;SDS011;55464;48.266;14.188;2023-09-30T02:01:05;15.05;;;7.68;;
68475;SDS011;55464;48.266;14.188;2023-09-30T02:03:31;15.38;;;7.28;;
68475;SDS011;55464;48.266;14.188;2023-09-30T02:05:57;15.50;;;7.25;;
68475;SDS011;55464;48.266;14.188;2023-09-30T02:08:23;13.93;;;6.45;;
68475;SDS011;55464;48.266;14.188;2023-09-30T02:10:49;16.33;;;7.68;;
68475;SDS011;55464;48.266;14.188;2023-09-30T02:13:16;13.45;;;7.30;;
68475;SDS011;55464;48.266;14.188;2023-09-30T02:15:42;12.20;;;6.82;;
68475;SDS011;55464;48.266;14.188;2023-09-30T02:18:08;12.85;;;6.72;;
68475;SDS011;55464;48.266;14.188;2023-09-30T02:20:34;17.67;;;6.63;;
68475;SDS011;55464;48.266;14.188;2023-09-30T02:23:00;10.80;;;6.05;;
68475;SDS011;55464;48.266;14.188;2023-09-30T02:25:27;11.38;;;6.38;;
68475;SDS011;55464;48.266;14.188;2023-09-30T02:27:52;15.57;;;7.22;;
68475;SDS011;55464;48.266;14.188;2023-09-30T02:30:18;16.42;;;6.78;;
68475;SDS011;55464;48.266;14.188;2023-09-30T02:32:44;11.82;;;7.15;;
68475;SDS011;55464;48.266;14.188;2023-09-30T02:35:11;14.95;;;7.55;;
68475;SDS011;55464;48.266;14.188;2023-09-30T02:37:37;10.02;;;5.90;;
68475;SDS011;55464;48.266;14.188;2023-09-30T02:40:03;13.65;;;7.13;;
68475;SDS011;55464;48.266;14.188;2023-09-30T02:42:39;15.27;;;7.53;;
68475;SDS011;55464;48.266;14.188;2023-09-30T02:45:05;26.38;;;8.95;;
68475;SDS011;55464;48.266;14.188;2023-09-30T02:47:33;21.77;;;8.07;;
68475;SDS011;55464;48.266;14.188;2023-09-30T02:50:00;19.27;;;7.47;;
68475;SDS011;55464;48.266;14.188;2023-09-30T02:52:26;25.48;;;9.27;;
68475;SDS011;55464;48.266;14.188;2023-09-30T02:54:54;23.73;;;9.23;;
68475;SDS011;55464;48.266;14.188;2023-09-30T02:57:20;24.95;;;10.35;;
68475;SDS011;55464;48.266;14.188;2023-09-30T02:59:46;27.25;;;9.07;;
68475;SDS011;55464;48.266;14.188;2023-09-30T03:02:12;24.48;;;8.63;;
68475;SDS011;55464;48.266;14.188;2023-09-30T03:04:38;25.20;;;9.02;;
68475;SDS011;55464;48.266;14.188;2023-09-30T03:07:03;23.55;;;9.10;;
68475;SDS011;55464;48.266;14.188;2023-09-30T03:09:29;22.85;;;8.32;;
68475;SDS011;55464;48.266;14.188;2023-09-30T03:11:54;26.85;;;9.25;;
68475;SDS011;55464;48.266;14.188;2023-09-30T03:14:24;24.52;;;7.93;;
68475;SDS011;55464;48.266;14.188;2023-09-30T03:16:50;20.98;;;7.82;;
68475;SDS011;55464;48.266;14.188;2023-09-30T03:19:15;23.42;;;9.25;;
68475;SDS011;55464;48.266;14.188;2023-09-30T03:21:41;20.40;;;8.43;;
68475;SDS011;55464;48.266;14.188;2023-09-30T03:24:08;26.33;;;8.75;;
68475;SDS011;55464;48.266;14.188;2023-09-30T03:26:34;24.60;;;8.82;;
68475;SDS011;55464;48.266;14.188;2023-09-30T03:28:59;21.50;;;8.30;;
68475;SDS011;55464;48.266;14.188;2023-09-30T03:31:25;23.45;;;8.65;;
68475;SDS011;55464;48.266;14.188;2023-09-30T03:33:51;24.10;;;8.57;;
68475;SDS011;55464;48.266;14.188;2023-09-30T03:36:22;22.52;;;8.07;;
68475;SDS011;55464;48.266;14.188;2023-09-30T03:38:49;32.42;;;9.63;;
68475;SDS011;55464;48.266;14.188;2023-09-30T03:41:15;25.15;;;9.25;;
68475;SDS011;55464;48.266;14.188;2023-09-30T03:43:41;22.13;;;8.50;;
68475;SDS011;55464;48.266;14.188;2023-09-30T03:46:09;28.58;;;9.50;;
68475;SDS011;55464;48.266;14.188;2023-09-30T03:48:37;22.48;;;8.15;;
68475;SDS011;55464;48.266;14.188;2023-09-30T03:51:11;25.38;;;8.73;;
68475;SDS011;55464;48.266;14.188;2023-09-30T03:53:43;23.48;;;8.45;;
68475;SDS011;55464;48.266;14.188;2023-09-30T03:56:11;24.60;;;9.18;;
68475;SDS011;55464;48.266;14.188;2023-09-30T03:58:38;23.95;;;8.73;;
68475;SDS011;55464;48.266;14.188;2023-09-30T04:01:07;26.23;;;9.15;;
68475;SDS011;55464;48.266;14.188;2023-09-30T04:03:36;26.63;;;9.48;;
68475;SDS011;55464;48.266;14.188;2023-09-30T04:06:04;27.30;;;9.18;;
68475;SDS011;55464;48.266;14.188;2023-09-30T04:08:31;23.90;;;8.68;;
68475;SDS011;55464;48.266;14.188;2023-09-30T04:10:58;21.33;;;7.93;;
68475;SDS011;55464;48.266;14.188;2023-09-30T04:13:24;21.17;;;8.27;;
68475;SDS011;55464;48.266;14.188;2023-09-30T04:15:50;20.55;;;8.05;;
68475;SDS011;55464;48.266;14.188;2023-09-30T04:18:16;27.10;;;8.35;;
68475;SDS011;55464;48.266;14.188;2023-09-30T04:20:41;25.50;;;8.70;;
68475;SDS011;55464;48.266;14.188;2023-09-30T04:23:07;31.52;;;11.05;;
68475;SDS011;55464;48.266;14.188;2023-09-30T04:25:35;34.00;;;15.02;;
68475;SDS011;55464;48.266;14.188;2023-09-30T04:28:00;43.10;;;15.93;;
68475;SDS011;55464;48.266;14.188;2023-09-30T04:30:28;44.85;;;16.95;;
68475;SDS011;55464;48.266;14.188;2023-09-30T04:32:54;24.63;;;9.75;;
68475;SDS011;55464;48.266;14.188;2023-09-30T04:35:20;24.80;;;9.32;;
68475;SDS011;55464;48.266;14.188;2023-09-30T04:37:46;26.42;;;8.80;;
68475;SDS011;55464;48.266;14.188;2023-09-30T04:40:12;23.40;;;8.85;;
68475;SDS011;55464;48.266;14.188;2023-09-30T04:42:43;27.67;;;9.30;;
68475;SDS011;55464;48.266;14.188;2023-09-30T04:45:10;24.33;;;9.45;;
68475;SDS011;55464;48.266;14.188;2023-09-30T04:47:36;22.42;;;8.50;;
68475;SDS011;55464;48.266;14.188;2023-09-30T04:50:04;26.63;;;8.65;;
68475;SDS011;55464;48.266;14.188;2023-09-30T04:52:32;24.48;;;8.77;;
68475;SDS011;55464;48.266;14.188;2023-09-30T04:54:58;21.67;;;7.78;;
68475;SDS011;55464;48.266;14.188;2023-09-30T04:57:25;25.25;;;8.55;;
68475;SDS011;55464;48.266;14.188;2023-09-30T04:59:51;23.42;;;8.77;;
68475;SDS011;55464;48.266;14.188;2023-09-30T05:02:16;25.95;;;9.30;;
68475;SDS011;55464;48.266;14.188;2023-09-30T05:04:42;23.20;;;8.02;;
68475;SDS011;55464;48.266;14.188;2023-09-30T05:07:07;21.40;;;8.10;;
68475;SDS011;55464;48.266;14.188;2023-09-30T05:09:33;21.35;;;8.43;;
68475;SDS011;55464;48.266;14.188;2023-09-30T05:11:59;23.15;;;8.80;;
68475;SDS011;55464;48.266;14.188;2023-09-30T05:14:24;24.63;;;9.38;;
68475;SDS011;55464;48.266;14.188;2023-09-30T05:16:49;27.15;;;11.27;;
68475;SDS011;55464;48.266;14.188;2023-09-30T05:19:15;25.73;;;9.35;;
68475;SDS011;55464;48.266;14.188;2023-09-30T05:21:41;24.98;;;9.77;;
68475;SDS011;55464;48.266;14.188;2023-09-30T05:24:07;20.13;;;8.57;;
68475;SDS011;55464;48.266;14.188;2023-09-30T05:26:33;21.60;;;8.50;;
68475;SDS011;55464;48.266;14.188;2023-09-30T05:28:59;26.73;;;9.52;;
68475;SDS011;55464;48.266;14.188;2023-09-30T05:31:24;24.15;;;8.77;;
68475;SDS011;55464;48.266;14.188;2023-09-30T05:33:50;25.42;;;8.40;;
68475;SDS011;55464;48.266;14.188;2023-09-30T05:36:15;18.70;;;7.38;;
68475;SDS011;55464;48.266;14.188;2023-09-30T05:38:41;23.83;;;8.00;;
68475;SDS011;55464;48.266;14.188;2023-09-30T05:41:07;22.17;;;8.63;;
68475;SDS011;55464;48.266;14.188;2023-09-30T05:43:33;25.15;;;8.45;;
68475;SDS011;55464;48.266;14.188;2023-09-30T05:45:59;22.35;;;8.98;;
68475;SDS011;55464;48.266;14.188;2023-09-30T05:48:24;27.02;;;9.63;;
68475;SDS011;55464;48.266;14.188;2023-09-30T05:50:50;22.77;;;8.55;;
68475;SDS011;55464;48.266;14.188;2023-09-30T05:53:15;21.20;;;7.95;;
68475;SDS011;55464;48.266;14.188;2023-09-30T05:55:41;24.58;;;9.20;;
68475;SDS011;55464;48.266;14.188;2023-09-30T05:58:08;23.40;;;9.38;;
68475;SDS011;55464;48.266;14.188;2023-09-30T06:00:34;27.52;;;9.63;;
68475;SDS011;55464;48.266;14.188;2023-09-30T06:03:00;22.08;;;8.85;;
68475;SDS011;55464;48.266;14.188;2023-09-30T06:05:26;24.60;;;8.93;;
68475;SDS011;55464;48.266;14.188;2023-09-30T06:07:55;22.10;;;8.15;;
68475;SDS011;55464;48.266;14.188;2023-09-30T06:10:21;25.95;;;9.15;;
68475;SDS011;55464;48.266;14.188;2023-09-30T06:12:47;22.52;;;8.68;;
68475;SDS011;55464;48.266;14.188;2023-09-30T06:15:16;26.67;;;8.90;;
68475;SDS011;55464;48.266;14.188;2023-09-30T06:17:46;26.17;;;8.88;;
68475;SDS011;55464;48.266;14.188;2023-09-30T06:20:13;24.35;;;8.50;;
68475;SDS011;55464;48.266;14.188;2023-09-30T06:22:45;24.60;;;8.52;;
68475;SDS011;55464;48.266;14.188;2023-09-30T06:25:12;25.25;;;8.25;;
68475;SDS011;55464;48.266;14.188;2023-09-30T06:27:41;19.95;;;7.53;;
68475;SDS011;55464;48.266;14.188;2023-09-30T06:30:07;30.35;;;9.32;;
68475;SDS011;55464;48.266;14.188;2023-09-30T06:32:34;24.38;;;7.97;;
68475;SDS011;55464;48.266;14.188;2023-09-30T06:35:01;27.95;;;8.73;;
68475;SDS011;55464;48.266;14.188;2023-09-30T06:37:28;23.85;;;8.48;;
68475;SDS011;55464;48.266;14.188;2023-09-30T06:39:54;25.63;;;8.45;;
68475;SDS011;55464;48.266;14.188;2023-09-30T06:42:20;24.10;;;9.10;;
68475;SDS011;55464;48.266;14.188;2023-09-30T06:44:47;28.55;;;8.57;;
68475;SDS011;55464;48.266;14.188;2023-09-30T06:47:12;27.60;;;8.25;;
68475;SDS011;55464;48.266;14.188;2023-09-30T06:49:38;20.65;;;7.78;;
68475;SDS011;55464;48.266;14.188;2023-09-30T06:52:04;20.30;;;7.75;;
68475;SDS011;55464;48.266;14.188;2023-09-30T06:54:30;25.25;;;9.05;;
68475;SDS011;55464;48.266;14.188;2023-09-30T06:56:56;25.88;;;8.75;;
68475;SDS011;55464;48.266;14.188;2023-09-30T06:59:22;22.75;;;8.32;;
68475;SDS011;55464;48.266;14.188;2023-09-30T07:01:47;23.85;;;8.63;;
68475;SDS011;55464;48.266;14.188;2023-09-30T07:04:13;22.58;;;7.82;;
68475;SDS011;55464;48.266;14.188;2023-09-30T07:06:38;25.73;;;7.85;;
68475;SDS011;55464;48.266;14.188;2023-09-30T07:09:04;24.10;;;8.27;;
68475;SDS011;55464;48.266;14.188;2023-09-30T07:11:29;23.63;;;8.52;;
68475;SDS011;55464;48.266;14.188;2023-09-30T07:13:58;22.30;;;7.35;;
68475;SDS011;55464;48.266;14.188;2023-09-30T07:16:24;20.80;;;8.02;;
68475;SDS011;55464;48.266;14.188;2023-09-30T07:18:49;22.08;;;7.43;;
68475;SDS011;55464;48.266;14.188;2023-09-30T07:21:15;22.27;;;8.55;;
68475;SDS011;55464;48.266;14.188;2023-09-30T07:23:42;20.67;;;8.05;;
68475;SDS011;55464;48.266;14.188;2023-09-30T07:26:07;25.30;;;7.80;;
68475;SDS011;55464;48.266;14.188;2023-09-30T07:28:34;19.25;;;7.30;;
68475;SDS011;55464;48.266;14.188;2023-09-30T07:30:59;20.48;;;7.75;;
68475;SDS011;55464;48.266;14.188;2023-09-30T07:33:28;21.13;;;7.60;;
68475;SDS011;55464;48.266;14.188;2023-09-30T07:35:54;21.75;;;6.97;;
68475;SDS011;55464;48.266;14.188;2023-09-30T07:38:21;23.75;;;7.60;;
68475;SDS011;55464;48.266;14.188;2023-09-30T07:40:47;23.98;;;7.80;;
68475;SDS011;55464;48.266;14.188;2023-09-30T07:43:13;20.98;;;7.32;;
68475;SDS011;55464;48.266;14.188;2023-09-30T07:45:39;23.30;;;8.13;;
68475;SDS011;55464;48.266;14.188;2023-09-30T07:48:06;19.65;;;6.82;;
68475;SDS011;55464;48.266;14.188;2023-09-30T07:50:34;24.75;;;8.05;;
68475;SDS011;55464;48.266;14.188;2023-09-30T07:53:00;21.60;;;7.22;;
68475;SDS011;55464;48.266;14.188;2023-09-30T07:55:25;21.52;;;6.70;;
68475;SDS011;55464;48.266;14.188;2023-09-30T07:57:51;16.38;;;5.93;;
68475;SDS011;55464;48.266;14.188;2023-09-30T08:00:17;17.65;;;5.57;;
68475;SDS011;55464;48.266;14.188;2023-09-30T08:02:43;18.48;;;5.95;;
68475;SDS011;55464;48.266;14.188;2023-09-30T08:05:09;15.10;;;6.30;;
68475;SDS011;55464;48.266;14.188;2023-09-30T08:07:45;21.55;;;6.63;;
68475;SDS011;55464;48.266;14.188;2023-09-30T08:14:15;19.80;;;6.55;;
68475;SDS011;55464;48.266;14.188;2023-09-30T08:20:26;17.35;;;6.15;;
68475;SDS011;55464;48.266;14.188;2023-09-30T08:26:50;18.15;;;6.38;;
68475;SDS011;55464;48.266;14.188;2023-09-30T08:29:43;20.83;;;6.30;;
68475;SDS011;55464;48.266;14.188;2023-09-30T08:32:51;17.20;;;5.57;;
68475;SDS011;55464;48.266;14.188;2023-09-30T08:35:46;18.38;;;6.40;;
68475;SDS011;55464;48.266;14.188;2023-09-30T08:39:04;17.60;;;6.18;;
68475;SDS011;55464;48.266;14.188;2023-09-30T08:45:28;17.83;;;6.57;;
68475;SDS011;55464;48.266;14.188;2023-09-30T08:48:00;17.10;;;6.77;;
68475;SDS011;55464;48.266;14.188;2023-09-30T08:50:30;16.42;;;6.05;;
68475;SDS011;55464;48.266;14.188;2023-09-30T08:52:57;16.08;;;6.25;;
68475;SDS011;55464;48.266;14.188;2023-09-30T08:55:22;20.70;;;5.97;;
68475;SDS011;55464;48.266;14.188;2023-09-30T08:57:49;18.27;;;5.95;;
68475;SDS011;55464;48.266;14.188;2023-09-30T09:00:15;18.08;;;5.80;;
68475;SDS011;55464;48.266;14.188;2023-09-30T09:02:41;20.00;;;6.45;;
68475;SDS011;55464;48.266;14.188;2023-09-30T09:05:07;20.10;;;6.40;;
68475;SDS011;55464;48.266;14.188;2023-09-30T09:07:35;14.70;;;5.50;;
68475;SDS011;55464;48.266;14.188;2023-09-30T09:10:03;16.73;;;6.18;;
68475;SDS011;55464;48.266;14.188;2023-09-30T09:12:34;18.45;;;6.07;;
68475;SDS011;55464;48.266;14.188;2023-09-30T09:15:02;17.55;;;7.45;;
68475;SDS011;55464;48.266;14.188;2023-09-30T09:17:40;13.95;;;6.15;;
68475;SDS011;55464;48.266;14.188;2023-09-30T09:20:07;15.02;;;5.68;;
68475;SDS011;55464;48.266;14.188;2023-09-30T09:22:42;18.73;;;6.55;;
68475;SDS011;55464;48.266;14.188;2023-09-30T09:25:08;16.70;;;5.40;;
68475;SDS011;55464;48.266;14.188;2023-09-30T09:27:35;15.20;;;4.95;;
68475;SDS011;55464;48.266;14.188;2023-09-30T09:30:16;16.27;;;5.32;;
68475;SDS011;55464;48.266;14.188;2023-09-30T09:32:54;14.68;;;4.97;;
68475;SDS011;55464;48.266;14.188;2023-09-30T09:35:21;11.88;;;4.20;;
68475;SDS011;55464;48.266;14.188;2023-09-30T09:40:32;12.85;;;4.60;;
68475;SDS011;55464;48.266;14.188;2023-09-30T09:42:59;16.83;;;5.90;;
68475;SDS011;55464;48.266;14.188;2023-09-30T09:45:27;15.07;;;4.95;;
68475;SDS011;55464;48.266;14.188;2023-09-30T09:47:53;13.82;;;4.63;;
68475;SDS011;55464;48.266;14.188;2023-09-30T09:50:22;14.52;;;5.55;;
68475;SDS011;55464;48.266;14.188;2023-09-30T09:52:49;18.35;;;6.03;;
68475;SDS011;55464;48.266;14.188;2023-09-30T09:55:16;14.68;;;5.05;;
68475;SDS011;55464;48.266;14.188;2023-09-30T09:57:44;12.27;;;4.97;;
68475;SDS011;55464;48.266;14.188;2023-09-30T10:00:17;15.38;;;5.70;;
68475;SDS011;55464;48.266;14.188;2023-09-30T10:02:47;12.40;;;5.32;;
68475;SDS011;55464;48.266;14.188;2023-09-30T10:05:13;16.60;;;5.28;;
68475;SDS011;55464;48.266;14.188;2023-09-30T10:08:02;14.80;;;4.90;;
68475;SDS011;55464;48.266;14.188;2023-09-30T10:10:28;13.82;;;5.07;;
68475;SDS011;55464;48.266;14.188;2023-09-30T10:12:55;16.27;;;5.07;;
68475;SDS011;55464;48.266;14.188;2023-09-30T10:18:01;21.25;;;5.47;;
68475;SDS011;55464;48.266;14.188;2023-09-30T10:20:38;18.48;;;5.80;;
68475;SDS011;55464;48.266;14.188;2023-09-30T10:23:28;16.45;;;5.82;;
68475;SDS011;55464;48.266;14.188;2023-09-30T10:28:42;19.83;;;6.03;;
68475;SDS011;55464;48.266;14.188;2023-09-30T10:31:20;16.13;;;5.13;;
68475;SDS011;55464;48.266;14.188;2023-09-30T10:36:37;13.63;;;5.78;;
68475;SDS011;55464;48.266;14.188;2023-09-30T10:39:05;17.38;;;5.55;;
68475;SDS011;55464;48.266;14.188;2023-09-30T10:46:58;23.90;;;8.18;;
68475;SDS011;55464;48.266;14.188;2023-09-30T10:51:54;26.30;;;8.10;;
68475;SDS011;55464;48.266;14.188;2023-09-30T10:54:23;22.90;;;8.43;;
68475;SDS011;55464;48.266;14.188;2023-09-30T10:56:50;22.88;;;8.80;;
68475;SDS011;55464;48.266;14.188;2023-09-30T10:59:19;20.90;;;6.93;;
68475;SDS011;55464;48.266;14.188;2023-09-30T11:01:48;24.13;;;7.93;;
68475;SDS011;55464;48.266;14.188;2023-09-30T11:04:14;24.17;;;8.35;;
68475;SDS011;55464;48.266;14.188;2023-09-30T11:06:40;25.20;;;8.70;;
68475;SDS011;55464;48.266;14.188;2023-09-30T11:09:07;23.63;;;7.70;;
68475;SDS011;55464;48.266;14.188;2023-09-30T11:11:40;23.67;;;8.45;;
68475;SDS011;55464;48.266;14.188;2023-09-30T11:14:26;22.92;;;8.07;;
68475;SDS011;55464;48.266;14.188;2023-09-30T11:16:53;20.25;;;7.70;;
68475;SDS011;55464;48.266;14.188;2023-09-30T11:19:20;21.58;;;7.95;;
68475;SDS011;55464;48.266;14.188;2023-09-30T11:21:50;24.42;;;7.75;;
68475;SDS011;55464;48.266;14.188;2023-09-30T11:24:20;23.73;;;8.23;;
68475;SDS011;55464;48.266;14.188;2023-09-30T11:26:46;21.48;;;7.65;;
68475;SDS011;55464;48.266;14.188;2023-09-30T11:29:13;21.83;;;7.65;;
68475;SDS011;55464;48.266;14.188;2023-09-30T11:31:41;23.55;;;7.03;;
68475;SDS011;55464;48.266;14.188;2023-09-30T11:34:08;27.58;;;7.90;;
68475;SDS011;55464;48.266;14.188;2023-09-30T11:36:35;16.58;;;7.03;;
68475;SDS011;55464;48.266;14.188;2023-09-30T11:39:03;22.52;;;7.22;;
68475;SDS011;55464;48.266;14.188;2023-09-30T11:41:36;19.42;;;6.10;;
68475;SDS011;55464;48.266;14.188;2023-09-30T11:49:42;21.17;;;6.97;;
68475;SDS011;55464;48.266;14.188;2023-09-30T11:52:13;20.00;;;6.47;;
68475;SDS011;55464;48.266;14.188;2023-09-30T11:54:43;19.25;;;6.90;;
68475;SDS011;55464;48.266;14.188;2023-09-30T11:57:16;17.67;;;5.95;;
68475;SDS011;55464;48.266;14.188;2023-09-30T11:59:43;16.98;;;5.93;;
68475;SDS011;55464;48.266;14.188;2023-09-30T12:02:10;17.45;;;6.82;;
68475;SDS011;55464;48.266;14.188;2023-09-30T12:04:37;16.08;;;6.20;;
68475;SDS011;55464;48.266;14.188;2023-09-30T12:07:03;21.88;;;6.35;;
68475;SDS011;55464;48.266;14.188;2023-09-30T12:09:29;20.02;;;7.03;;
68475;SDS011;55464;48.266;14.188;2023-09-30T12:11:56;16.25;;;5.85;;
68475;SDS011;55464;48.266;14.188;2023-09-30T12:14:23;18.33;;;6.40;;
68475;SDS011;55464;48.266;14.188;2023-09-30T12:16:49;18.73;;;6.88;;
68475;SDS011;55464;48.266;14.188;2023-09-30T12:19:15;20.27;;;6.18;;
68475;SDS011;55464;48.266;14.188;2023-09-30T12:21:43;17.27;;;6.22;;
68475;SDS011;55464;48.266;14.188;2023-09-30T12:24:12;16.30;;;5.82;;
68475;SDS011;55464;48.266;14.188;2023-09-30T12:26:42;19.08;;;6.18;;
68475;SDS011;55464;48.266;14.188;2023-09-30T12:29:17;21.13;;;7.85;;
68475;SDS011;55464;48.266;14.188;2023-09-30T12:31:44;22.33;;;7.68;;
68475;SDS011;55464;48.266;14.188;2023-09-30T12:34:10;14.30;;;5.22;;
68475;SDS011;55464;48.266;14.188;2023-09-30T12:36:37;16.60;;;5.70;;
68475;SDS011;55464;48.266;14.188;2023-09-30T12:39:03;18.77;;;5.40;;
68475;SDS011;55464;48.266;14.188;2023-09-30T12:41:36;18.42;;;6.35;;
68475;SDS011;55464;48.266;14.188;2023-09-30T12:44:02;16.95;;;5.57;;
68475;SDS011;55464;48.266;14.188;2023-09-30T12:46:27;18.45;;;6.40;;
68475;SDS011;55464;48.266;14.188;2023-09-30T12:48:53;17.48;;;5.88;;
68475;SDS011;55464;48.266;14.188;2023-09-30T12:51:20;17.85;;;6.05;;
68475;SDS011;55464;48.266;14.188;2023-09-30T12:53:45;13.38;;;6.07;;
68475;SDS011;55464;48.266;14.188;2023-09-30T12:56:11;15.05;;;6.43;;
68475;SDS011;55464;48.266;14.188;2023-09-30T12:58:36;19.52;;;6.28;;
68475;SDS011;55464;48.266;14.188;2023-09-30T13:01:03;17.02;;;6.53;;
68475;SDS011;55464;48.266;14.188;2023-09-30T13:03:31;21.25;;;6.63;;
68475;SDS011;55464;48.266;14.188;2023-09-30T13:05:57;15.27;;;5.80;;
68475;SDS011;55464;48.266;14.188;2023-09-30T13:08:23;18.13;;;5.95;;
68475;SDS011;55464;48.266;14.188;2023-09-30T13:10:48;21.95;;;7.18;;
68475;SDS011;55464;48.266;14.188;2023-09-30T13:13:15;25.05;;;6.82;;
68475;SDS011;55464;48.266;14.188;2023-09-30T13:15:43;15.70;;;5.70;;
68475;SDS011;55464;48.266;14.188;2023-09-30T13:18:09;17.27;;;6.53;;
68475;SDS011;55464;48.266;14.188;2023-09-30T13:20:35;19.45;;;6.68;;
68475;SDS011;55464;48.266;14.188;2023-09-30T13:23:00;16.63;;;6.13;;
68475;SDS011;55464;48.266;14.188;2023-09-30T13:25:26;15.57;;;5.80;;
68475;SDS011;55464;48.266;14.188;2023-09-30T13:27:51;14.23;;;5.43;;
68475;SDS011;55464;48.266;14.188;2023-09-30T13:30:17;15.70;;;5.82;;
68475;SDS011;55464;48.266;14.188;2023-09-30T13:32:43;13.98;;;5.32;;
68475;SDS011;55464;48.266;14.188;2023-09-30T13:35:09;14.15;;;5.88;;
68475;SDS011;55464;48.266;14.188;2023-09-30T13:37:34;14.93;;;6.05;;
68475;SDS011;55464;48.266;14.188;2023-09-30T13:40:02;15.25;;;6.90;;
68475;SDS011;55464;48.266;14.188;2023-09-30T13:42:29;18.08;;;6.63;;
68475;SDS011;55464;48.266;14.188;2023-09-30T13:44:55;17.88;;;6.80;;
68475;SDS011;55464;48.266;14.188;2023-09-30T13:47:24;16.95;;;6.70;;
68475;SDS011;55464;48.266;14.188;2023-09-30T13:49:50;16.88;;;6.32;;
68475;SDS011;55464;48.266;14.188;2023-09-30T13:52:16;16.98;;;6.65;;
68475;SDS011;55464;48.266;14.188;2023-09-30T13:54:41;16.27;;;6.00;;
68475;SDS011;55464;48.266;14.188;2023-09-30T13:57:06;17.25;;;5.97;;
68475;SDS011;55464;48.266;14.188;2023-09-30T13:59:35;15.10;;;6.00;;
68475;SDS011;55464;48.266;14.188;2023-09-30T14:02:01;15.60;;;5.55;;
68475;SDS011;55464;48.266;14.188;2023-09-30T14:04:29;12.65;;;4.32;;
68475;SDS011;55464;48.266;14.188;2023-09-30T14:06:57;12.67;;;4.90;;
68475;SDS011;55464;48.266;14.188;2023-09-30T14:09:25;11.93;;;4.65;;
68475;SDS011;55464;48.266;14.188;2023-09-30T14:11:51;8.90;;;3.92;;
68475;SDS011;55464;48.266;14.188;2023-09-30T14:14:17;14.00;;;3.97;;
68475;SDS011;55464;48.266;14.188;2023-09-30T14:16:43;12.13;;;4.30;;
68475;SDS011;55464;48.266;14.188;2023-09-30T14:19:08;12.60;;;4.80;;
68475;SDS011;55464;48.266;14.188;2023-09-30T14:21:34;9.20;;;4.10;;
68475;SDS011;55464;48.266;14.188;2023-09-30T14:23:59;12.10;;;4.53;;
68475;SDS011;55464;48.266;14.188;2023-09-30T14:26:27;10.18;;;4.05;;
68475;SDS011;55464;48.266;14.188;2023-09-30T14:28:53;8.80;;;3.65;;
68475;SDS011;55464;48.266;14.188;2023-09-30T14:31:19;12.32;;;4.30;;
68475;SDS011;55464;48.266;14.188;2023-09-30T14:33:44;12.40;;;4.50;;
68475;SDS011;55464;48.266;14.188;2023-09-30T14:36:10;9.90;;;4.50;;
68475;SDS011;55464;48.266;14.188;2023-09-30T14:38:35;12.73;;;5.22;;
68475;SDS011;55464;48.266;14.188;2023-09-30T14:41:06;10.93;;;4.50;;
68475;SDS011;55464;48.266;14.188;2023-09-30T14:43:32;9.75;;;3.83;;
68475;SDS011;55464;48.266;14.188;2023-09-30T14:46:00;12.95;;;4.10;;
68475;SDS011;55464;48.266;14.188;2023-09-30T14:48:27;9.30;;;3.78;;
68475;SDS011;55464;48.266;14.188;2023-09-30T14:50:53;10.15;;;4.22;;
68475;SDS011;55464;48.266;14.188;2023-09-30T14:53:18;10.90;;;4.45;;
68475;SDS011;55464;48.266;14.188;2023-09-30T14:55:44;11.32;;;4.30;;
68475;SDS011;55464;48.266;14.188;2023-09-30T14:58:10;13.45;;;4.28;;
68475;SDS011;55464;48.266;14.188;2023-09-30T15:00:36;9.60;;;4.03;;
68475;SDS011;55464;48.266;14.188;2023-09-30T15:03:01;10.15;;;4.00;;